sensor_id;sensor_type;location;lat;lon;timestamp;P1;durP1;ratioP1;P2;durP2;ratioP2
55312;SDS011;46892;45.668;11.756;2024-01-06T00:02:23;3.97;;;2.67;;
55312;SDS011;46892;45.668;11.756;2024-01-06T00:04:49;5.87;;;2.90;;
55312;SDS011;46892;45.668;11.756;2024-01-06T00:07:14;4.60;;;2.67;;
55312;SDS011;46892;45.668;11.756;2024-01-06T00:09:40;2.60;;;2.20;;
55312;SDS011;46892;45.668;11.756;2024-01-06T00:12:06;2.77;;;1.77;;
55312;SDS011;46892;45.668;11.756;2024-01-06T00:14:32;4.37;;;2.43;;
55312;SDS011;46892;45.668;11.756;2024-01-06T00:16:57;2.50;;;1.60;;
55312;SDS011;46892;45.668;11.756;2024-01-06T00:19:23;3.67;;;1.93;;
55312;SDS011;46892;45.668;11.756;2024-01-06T00:21:49;3.70;;;1.67;;
55312;SDS011;46892;45.668;11.756;2024-01-06T00:24:14;2.77;;;1.60;;
55312;SDS011;46892;45.668;11.756;2024-01-06T00:26:40;2.63;;;1.60;;
55312;SDS011;46892;45.668;11.756;2024-01-06T00:29:06;2.30;;;1.43;;
55312;SDS011;46892;45.668;11.756;2024-01-06T00:31:32;3.00;;;1.37;;
55312;SDS011;46892;45.668;11.756;2024-01-06T00:33:58;2.40;;;1.60;;
55312;SDS011;46892;45.668;11.756;2024-01-06T00:36:23;2.90;;;1.20;;
55312;SDS011;46892;45.668;11.756;2024-01-06T00:38:49;2.33;;;1.60;;
55312;SDS011;46892;45.668;11.756;2024-01-06T00:41:15;3.50;;;1.60;;
55312;SDS011;46892;45.668;11.756;2024-01-06T00:43:41;2.07;;;1.60;;
55312;SDS011;46892;45.668;11.756;2024-01-06T00:46:07;1.60;;;1.33;;
55312;SDS011;46892;45.668;11.756;2024-01-06T00:48:33;4.33;;;3.93;;
55312;SDS011;46892;45.668;11.756;2024-01-06T00:50:58;1.37;;;0.90;;
55312;SDS011;46892;45.668;11.756;2024-01-06T00:53:24;1.50;;;0.83;;
55312;SDS011;46892;45.668;11.756;2024-01-06T00:55:50;0.60;;;0.60;;
55312;SDS011;46892;45.668;11.756;2024-01-06T00:58:16;1.00;;;0.80;;
55312;SDS011;46892;45.668;11.756;2024-01-06T01:00:41;1.63;;;0.80;;
55312;SDS011;46892;45.668;11.756;2024-01-06T01:03:07;1.40;;;0.67;;
55312;SDS011;46892;45.668;11.756;2024-01-06T01:05:33;1.63;;;0.80;;
55312;SDS011;46892;45.668;11.756;2024-01-06T01:07:58;1.17;;;0.70;;
55312;SDS011;46892;45.668;11.756;2024-01-06T01:10:24;1.30;;;0.90;;
55312;SDS011;46892;45.668;11.756;2024-01-06T01:12:50;1.07;;;0.80;;
55312;SDS011;46892;45.668;11.756;2024-01-06T01:15:16;1.00;;;0.80;;
55312;SDS011;46892;45.668;11.756;2024-01-06T01:17:42;1.00;;;0.73;;
55312;SDS011;46892;45.668;11.756;2024-01-06T01:20:08;1.63;;;0.70;;
55312;SDS011;46892;45.668;11.756;2024-01-06T01:22:34;0.77;;;0.77;;
55312;SDS011;46892;45.668;11.756;2024-01-06T01:24:59;1.50;;;0.90;;
55312;SDS011;46892;45.668;11.756;2024-01-06T01:29:56;1.37;;;0.80;;
55312;SDS011;46892;45.668;11.756;2024-01-06T01:32:22;1.43;;;0.70;;
55312;SDS011;46892;45.668;11.756;2024-01-06T01:34:47;1.80;;;1.00;;
55312;SDS011;46892;45.668;11.756;2024-01-06T01:37:13;0.90;;;0.70;;
55312;SDS011;46892;45.668;11.756;2024-01-06T01:39:39;1.03;;;0.67;;
55312;SDS011;46892;45.668;11.756;2024-01-06T01:42:05;0.83;;;0.80;;
55312;SDS011;46892;45.668;11.756;2024-01-06T01:44:30;2.13;;;0.80;;
55312;SDS011;46892;45.668;11.756;2024-01-06T01:46:56;0.77;;;0.63;;
55312;SDS011;46892;45.668;11.756;2024-01-06T01:49:22;0.80;;;0.60;;
55312;SDS011;46892;45.668;11.756;2024-01-06T01:51:48;0.60;;;0.50;;
55312;SDS011;46892;45.668;11.756;2024-01-06T01:54:14;0.40;;;0.40;;
55312;SDS011;46892;45.668;11.756;2024-01-06T01:56:40;0.60;;;0.30;;
55312;SDS011;46892;45.668;11.756;2024-01-06T01:59:09;0.47;;;0.40;;
55312;SDS011;46892;45.668;11.756;2024-01-06T02:01:38;1.02;;;0.50;;
55312;SDS011;46892;45.668;11.756;2024-01-06T02:04:04;0.37;;;0.30;;
55312;SDS011;46892;45.668;11.756;2024-01-06T02:06:30;0.40;;;0.40;;
55312;SDS011;46892;45.668;11.756;2024-01-06T02:08:56;0.70;;;0.40;;
55312;SDS011;46892;45.668;11.756;2024-01-06T02:11:22;0.47;;;0.33;;
55312;SDS011;46892;45.668;11.756;2024-01-06T02:13:48;0.80;;;0.30;;
55312;SDS011;46892;45.668;11.756;2024-01-06T02:16:14;0.30;;;0.30;;
55312;SDS011;46892;45.668;11.756;2024-01-06T02:18:40;0.40;;;0.27;;
55312;SDS011;46892;45.668;11.756;2024-01-06T02:21:06;0.80;;;0.30;;
55312;SDS011;46892;45.668;11.756;2024-01-06T02:23:34;0.50;;;0.30;;
55312;SDS011;46892;45.668;11.756;2024-01-06T02:26:00;0.30;;;0.20;;
55312;SDS011;46892;45.668;11.756;2024-01-06T02:28:26;0.70;;;0.40;;
55312;SDS011;46892;45.668;11.756;2024-01-06T02:30:52;0.30;;;0.30;;
55312;SDS011;46892;45.668;11.756;2024-01-06T02:33:18;0.70;;;0.30;;
55312;SDS011;46892;45.668;11.756;2024-01-06T02:35:49;0.50;;;0.35;;
55312;SDS011;46892;45.668;11.756;2024-01-06T02:38:15;0.73;;;0.50;;
55312;SDS011;46892;45.668;11.756;2024-01-06T02:40:40;0.40;;;0.40;;
55312;SDS011;46892;45.668;11.756;2024-01-06T02:43:07;0.30;;;0.30;;
55312;SDS011;46892;45.668;11.756;2024-01-06T02:45:34;0.40;;;0.40;;
55312;SDS011;46892;45.668;11.756;2024-01-06T02:48:00;0.30;;;0.30;;
55312;SDS011;46892;45.668;11.756;2024-01-06T02:50:25;0.40;;;0.40;;
55312;SDS011;46892;45.668;11.756;2024-01-06T02:52:51;0.40;;;0.40;;
55312;SDS011;46892;45.668;11.756;2024-01-06T02:55:17;0.50;;;0.50;;
55312;SDS011;46892;45.668;11.756;2024-01-06T02:57:42;0.50;;;0.50;;
55312;SDS011;46892;45.668;11.756;2024-01-06T03:00:08;0.40;;;0.40;;
55312;SDS011;46892;45.668;11.756;2024-01-06T03:02:34;0.53;;;0.43;;
55312;SDS011;46892;45.668;11.756;2024-01-06T03:05:01;0.40;;;0.40;;
55312;SDS011;46892;45.668;11.756;2024-01-06T03:07:27;0.60;;;0.50;;
55312;SDS011;46892;45.668;11.756;2024-01-06T03:09:53;1.43;;;0.60;;
55312;SDS011;46892;45.668;11.756;2024-01-06T03:12:19;1.20;;;0.70;;
55312;SDS011;46892;45.668;11.756;2024-01-06T03:14:44;1.90;;;0.93;;
55312;SDS011;46892;45.668;11.756;2024-01-06T03:17:10;1.30;;;0.70;;
55312;SDS011;46892;45.668;11.756;2024-01-06T03:19:36;1.03;;;0.93;;
55312;SDS011;46892;45.668;11.756;2024-01-06T03:22:02;1.10;;;1.00;;
55312;SDS011;46892;45.668;11.756;2024-01-06T03:24:28;2.07;;;1.33;;
55312;SDS011;46892;45.668;11.756;2024-01-06T03:26:54;2.07;;;1.27;;
55312;SDS011;46892;45.668;11.756;2024-01-06T03:29:19;2.00;;;1.30;;
55312;SDS011;46892;45.668;11.756;2024-01-06T03:31:45;1.83;;;1.20;;
55312;SDS011;46892;45.668;11.756;2024-01-06T03:34:12;1.73;;;1.10;;
55312;SDS011;46892;45.668;11.756;2024-01-06T03:36:38;2.40;;;1.30;;
55312;SDS011;46892;45.668;11.756;2024-01-06T03:39:04;1.70;;;0.83;;
55312;SDS011;46892;45.668;11.756;2024-01-06T03:41:30;0.90;;;0.60;;
55312;SDS011;46892;45.668;11.756;2024-01-06T03:43:55;0.90;;;0.50;;
55312;SDS011;46892;45.668;11.756;2024-01-06T03:46:22;0.30;;;0.30;;
55312;SDS011;46892;45.668;11.756;2024-01-06T03:48:48;0.67;;;0.60;;
55312;SDS011;46892;45.668;11.756;2024-01-06T03:51:14;1.83;;;0.80;;
55312;SDS011;46892;45.668;11.756;2024-01-06T03:53:40;0.70;;;0.63;;
55312;SDS011;46892;45.668;11.756;2024-01-06T03:56:05;1.23;;;0.60;;
55312;SDS011;46892;45.668;11.756;2024-01-06T03:58:32;0.97;;;0.57;;
55312;SDS011;46892;45.668;11.756;2024-01-06T04:00:57;0.77;;;0.70;;
55312;SDS011;46892;45.668;11.756;2024-01-06T04:03:23;1.47;;;0.80;;
55312;SDS011;46892;45.668;11.756;2024-01-06T04:05:49;1.07;;;0.83;;
55312;SDS011;46892;45.668;11.756;2024-01-06T04:08:15;1.53;;;1.17;;
55312;SDS011;46892;45.668;11.756;2024-01-06T04:10:40;3.13;;;1.50;;
55312;SDS011;46892;45.668;11.756;2024-01-06T04:13:07;2.03;;;1.10;;
55312;SDS011;46892;45.668;11.756;2024-01-06T04:15:32;2.47;;;1.00;;
55312;SDS011;46892;45.668;11.756;2024-01-06T04:18:01;1.20;;;0.70;;
55312;SDS011;46892;45.668;11.756;2024-01-06T04:20:31;1.37;;;0.97;;
55312;SDS011;46892;45.668;11.756;2024-01-06T04:22:57;1.43;;;0.70;;
55312;SDS011;46892;45.668;11.756;2024-01-06T04:25:23;1.57;;;0.70;;
55312;SDS011;46892;45.668;11.756;2024-01-06T04:27:49;0.67;;;0.67;;
55312;SDS011;46892;45.668;11.756;2024-01-06T04:30:15;1.57;;;0.93;;
55312;SDS011;46892;45.668;11.756;2024-01-06T04:32:41;1.43;;;0.60;;
55312;SDS011;46892;45.668;11.756;2024-01-06T04:35:08;1.10;;;0.80;;
55312;SDS011;46892;45.668;11.756;2024-01-06T04:37:33;1.00;;;0.90;;
55312;SDS011;46892;45.668;11.756;2024-01-06T04:39:59;1.97;;;0.83;;
55312;SDS011;46892;45.668;11.756;2024-01-06T04:42:25;1.27;;;1.00;;
55312;SDS011;46892;45.668;11.756;2024-01-06T04:44:51;0.90;;;0.80;;
55312;SDS011;46892;45.668;11.756;2024-01-06T04:47:17;1.50;;;1.27;;
55312;SDS011;46892;45.668;11.756;2024-01-06T04:49:43;0.60;;;0.60;;
55312;SDS011;46892;45.668;11.756;2024-01-06T04:52:09;1.10;;;0.53;;
55312;SDS011;46892;45.668;11.756;2024-01-06T04:54:35;0.60;;;0.60;;
55312;SDS011;46892;45.668;11.756;2024-01-06T04:57:01;0.90;;;0.70;;
55312;SDS011;46892;45.668;11.756;2024-01-06T04:59:27;0.80;;;0.57;;
55312;SDS011;46892;45.668;11.756;2024-01-06T05:01:53;1.27;;;0.70;;
55312;SDS011;46892;45.668;11.756;2024-01-06T05:04:19;0.70;;;0.70;;
55312;SDS011;46892;45.668;11.756;2024-01-06T05:06:44;1.27;;;0.70;;
55312;SDS011;46892;45.668;11.756;2024-01-06T05:09:10;2.60;;;0.70;;
55312;SDS011;46892;45.668;11.756;2024-01-06T05:11:36;0.93;;;0.70;;
55312;SDS011;46892;45.668;11.756;2024-01-06T05:14:02;0.50;;;0.50;;
55312;SDS011;46892;45.668;11.756;2024-01-06T05:16:27;0.80;;;0.50;;
55312;SDS011;46892;45.668;11.756;2024-01-06T05:18:53;1.43;;;0.80;;
55312;SDS011;46892;45.668;11.756;2024-01-06T05:21:19;0.53;;;0.50;;
55312;SDS011;46892;45.668;11.756;2024-01-06T05:23:45;0.57;;;0.50;;
55312;SDS011;46892;45.668;11.756;2024-01-06T05:26:11;0.50;;;0.50;;
55312;SDS011;46892;45.668;11.756;2024-01-06T05:28:38;0.80;;;0.60;;
55312;SDS011;46892;45.668;11.756;2024-01-06T05:31:05;0.73;;;0.60;;
55312;SDS011;46892;45.668;11.756;2024-01-06T05:33:31;1.97;;;0.67;;
55312;SDS011;46892;45.668;11.756;2024-01-06T05:35:57;0.73;;;0.67;;
55312;SDS011;46892;45.668;11.756;2024-01-06T05:38:22;1.00;;;0.70;;
55312;SDS011;46892;45.668;11.756;2024-01-06T05:40:48;1.43;;;0.80;;
55312;SDS011;46892;45.668;11.756;2024-01-06T05:43:14;1.40;;;0.80;;
55312;SDS011;46892;45.668;11.756;2024-01-06T05:45:40;1.60;;;0.80;;
55312;SDS011;46892;45.668;11.756;2024-01-06T05:48:09;1.10;;;0.60;;
55312;SDS011;46892;45.668;11.756;2024-01-06T05:50:37;0.70;;;0.60;;
55312;SDS011;46892;45.668;11.756;2024-01-06T05:53:04;0.90;;;0.60;;
55312;SDS011;46892;45.668;11.756;2024-01-06T05:55:30;1.13;;;0.70;;
55312;SDS011;46892;45.668;11.756;2024-01-06T05:57:56;1.63;;;1.13;;
55312;SDS011;46892;45.668;11.756;2024-01-06T06:00:21;2.50;;;1.10;;
55312;SDS011;46892;45.668;11.756;2024-01-06T06:02:47;1.53;;;0.93;;
55312;SDS011;46892;45.668;11.756;2024-01-06T06:05:13;1.87;;;0.90;;
55312;SDS011;46892;45.668;11.756;2024-01-06T06:07:39;1.30;;;0.90;;
55312;SDS011;46892;45.668;11.756;2024-01-06T06:10:09;1.13;;;0.90;;
55312;SDS011;46892;45.668;11.756;2024-01-06T06:15:02;1.00;;;0.93;;
55312;SDS011;46892;45.668;11.756;2024-01-06T06:17:29;0.80;;;0.80;;
55312;SDS011;46892;45.668;11.756;2024-01-06T06:19:56;1.10;;;1.00;;
55312;SDS011;46892;45.668;11.756;2024-01-06T06:22:22;1.43;;;1.30;;
55312;SDS011;46892;45.668;11.756;2024-01-06T06:24:51;2.63;;;1.60;;
55312;SDS011;46892;45.668;11.756;2024-01-06T06:27:16;2.70;;;1.70;;
55312;SDS011;46892;45.668;11.756;2024-01-06T06:29:42;2.07;;;1.73;;
55312;SDS011;46892;45.668;11.756;2024-01-06T06:32:08;5.13;;;1.47;;
55312;SDS011;46892;45.668;11.756;2024-01-06T06:34:34;1.40;;;1.20;;
55312;SDS011;46892;45.668;11.756;2024-01-06T06:36:59;1.40;;;1.10;;
55312;SDS011;46892;45.668;11.756;2024-01-06T06:39:25;1.20;;;1.00;;
55312;SDS011;46892;45.668;11.756;2024-01-06T06:41:52;3.80;;;1.30;;
55312;SDS011;46892;45.668;11.756;2024-01-06T06:44:18;1.57;;;1.23;;
55312;SDS011;46892;45.668;11.756;2024-01-06T06:46:43;1.93;;;1.30;;
55312;SDS011;46892;45.668;11.756;2024-01-06T06:49:09;1.97;;;1.30;;
55312;SDS011;46892;45.668;11.756;2024-01-06T06:51:35;3.00;;;1.47;;
55312;SDS011;46892;45.668;11.756;2024-01-06T06:54:01;1.90;;;1.67;;
55312;SDS011;46892;45.668;11.756;2024-01-06T06:56:31;3.03;;;1.83;;
55312;SDS011;46892;45.668;11.756;2024-01-06T06:59:01;3.13;;;2.17;;
55312;SDS011;46892;45.668;11.756;2024-01-06T07:01:27;2.37;;;1.90;;
55312;SDS011;46892;45.668;11.756;2024-01-06T07:03:52;3.93;;;1.57;;
55312;SDS011;46892;45.668;11.756;2024-01-06T07:06:18;3.17;;;1.83;;
55312;SDS011;46892;45.668;11.756;2024-01-06T07:08:44;2.87;;;2.30;;
55312;SDS011;46892;45.668;11.756;2024-01-06T07:11:10;2.67;;;2.00;;
55312;SDS011;46892;45.668;11.756;2024-01-06T07:13:37;2.43;;;1.90;;
55312;SDS011;46892;45.668;11.756;2024-01-06T07:16:02;1.47;;;1.30;;
55312;SDS011;46892;45.668;11.756;2024-01-06T07:18:30;3.43;;;1.70;;
55312;SDS011;46892;45.668;11.756;2024-01-06T07:20:56;2.73;;;1.97;;
55312;SDS011;46892;45.668;11.756;2024-01-06T07:23:22;4.07;;;2.60;;
55312;SDS011;46892;45.668;11.756;2024-01-06T07:25:48;4.20;;;2.90;;
55312;SDS011;46892;45.668;11.756;2024-01-06T07:28:14;3.37;;;2.40;;
55312;SDS011;46892;45.668;11.756;2024-01-06T07:30:39;2.93;;;2.33;;
55312;SDS011;46892;45.668;11.756;2024-01-06T07:33:05;2.17;;;1.60;;
55312;SDS011;46892;45.668;11.756;2024-01-06T07:35:31;2.73;;;2.00;;
55312;SDS011;46892;45.668;11.756;2024-01-06T07:37:57;2.20;;;1.80;;
55312;SDS011;46892;45.668;11.756;2024-01-06T07:40:22;2.07;;;1.27;;
55312;SDS011;46892;45.668;11.756;2024-01-06T07:42:50;1.33;;;1.03;;
55312;SDS011;46892;45.668;11.756;2024-01-06T07:45:16;3.00;;;1.10;;
55312;SDS011;46892;45.668;11.756;2024-01-06T07:47:45;1.43;;;1.10;;
55312;SDS011;46892;45.668;11.756;2024-01-06T07:50:17;2.00;;;1.40;;
55312;SDS011;46892;45.668;11.756;2024-01-06T07:52:43;1.87;;;1.53;;
55312;SDS011;46892;45.668;11.756;2024-01-06T07:55:09;2.20;;;1.40;;
55312;SDS011;46892;45.668;11.756;2024-01-06T07:57:34;2.47;;;1.83;;
55312;SDS011;46892;45.668;11.756;2024-01-06T08:00:00;2.73;;;1.83;;
55312;SDS011;46892;45.668;11.756;2024-01-06T08:02:26;4.43;;;2.50;;
55312;SDS011;46892;45.668;11.756;2024-01-06T08:04:52;3.67;;;2.07;;
55312;SDS011;46892;45.668;11.756;2024-01-06T08:07:19;2.57;;;1.80;;
55312;SDS011;46892;45.668;11.756;2024-01-06T08:09:44;1.60;;;1.47;;
55312;SDS011;46892;45.668;11.756;2024-01-06T08:12:10;1.10;;;1.00;;
55312;SDS011;46892;45.668;11.756;2024-01-06T08:14:37;1.90;;;1.20;;
55312;SDS011;46892;45.668;11.756;2024-01-06T08:17:02;1.70;;;1.00;;
55312;SDS011;46892;45.668;11.756;2024-01-06T08:19:28;3.00;;;1.40;;
55312;SDS011;46892;45.668;11.756;2024-01-06T08:21:55;2.63;;;1.50;;
55312;SDS011;46892;45.668;11.756;2024-01-06T08:24:21;1.67;;;1.30;;
55312;SDS011;46892;45.668;11.756;2024-01-06T08:26:47;1.77;;;1.43;;
55312;SDS011;46892;45.668;11.756;2024-01-06T08:29:13;1.77;;;1.60;;
55312;SDS011;46892;45.668;11.756;2024-01-06T08:31:41;2.03;;;1.60;;
55312;SDS011;46892;45.668;11.756;2024-01-06T08:34:07;1.90;;;1.60;;
55312;SDS011;46892;45.668;11.756;2024-01-06T08:36:33;1.97;;;1.47;;
55312;SDS011;46892;45.668;11.756;2024-01-06T08:38:59;1.87;;;1.63;;
55312;SDS011;46892;45.668;11.756;2024-01-06T08:41:25;3.13;;;2.27;;
55312;SDS011;46892;45.668;11.756;2024-01-06T08:43:51;3.00;;;2.00;;
55312;SDS011;46892;45.668;11.756;2024-01-06T08:46:17;2.50;;;1.80;;
55312;SDS011;46892;45.668;11.756;2024-01-06T08:48:43;2.47;;;1.70;;
55312;SDS011;46892;45.668;11.756;2024-01-06T08:51:08;1.70;;;1.37;;
55312;SDS011;46892;45.668;11.756;2024-01-06T08:53:34;2.20;;;1.57;;
55312;SDS011;46892;45.668;11.756;2024-01-06T08:56:00;2.97;;;1.87;;
55312;SDS011;46892;45.668;11.756;2024-01-06T08:58:25;3.17;;;1.90;;
55312;SDS011;46892;45.668;11.756;2024-01-06T09:00:52;2.93;;;2.03;;
55312;SDS011;46892;45.668;11.756;2024-01-06T09:03:18;2.53;;;1.90;;
55312;SDS011;46892;45.668;11.756;2024-01-06T09:05:50;2.70;;;2.00;;
55312;SDS011;46892;45.668;11.756;2024-01-06T09:08:20;2.37;;;1.83;;
55312;SDS011;46892;45.668;11.756;2024-01-06T09:10:47;2.67;;;1.90;;
55312;SDS011;46892;45.668;11.756;2024-01-06T09:13:16;2.63;;;1.70;;
55312;SDS011;46892;45.668;11.756;2024-01-06T09:18:08;3.17;;;1.43;;
55312;SDS011;46892;45.668;11.756;2024-01-06T09:20:34;2.50;;;1.50;;
55312;SDS011;46892;45.668;11.756;2024-01-06T09:23:00;6.37;;;3.07;;
55312;SDS011;46892;45.668;11.756;2024-01-06T09:25:26;7.60;;;4.73;;
55312;SDS011;46892;45.668;11.756;2024-01-06T09:27:52;5.53;;;3.43;;
55312;SDS011;46892;45.668;11.756;2024-01-06T09:30:18;4.37;;;2.70;;
55312;SDS011;46892;45.668;11.756;2024-01-06T09:32:44;2.87;;;1.90;;
55312;SDS011;46892;45.668;11.756;2024-01-06T09:35:10;3.00;;;1.70;;
55312;SDS011;46892;45.668;11.756;2024-01-06T09:37:35;1.80;;;1.50;;
55312;SDS011;46892;45.668;11.756;2024-01-06T09:40:01;1.70;;;1.37;;
55312;SDS011;46892;45.668;11.756;2024-01-06T09:42:27;2.00;;;1.30;;
55312;SDS011;46892;45.668;11.756;2024-01-06T09:44:53;1.20;;;1.10;;
55312;SDS011;46892;45.668;11.756;2024-01-06T09:47:18;1.67;;;1.10;;
55312;SDS011;46892;45.668;11.756;2024-01-06T09:49:49;1.50;;;1.00;;
55312;SDS011;46892;45.668;11.756;2024-01-06T09:52:15;2.47;;;1.27;;
55312;SDS011;46892;45.668;11.756;2024-01-06T09:54:50;2.53;;;1.60;;
55312;SDS011;46892;45.668;11.756;2024-01-06T09:57:17;1.58;;;1.10;;
55312;SDS011;46892;45.668;11.756;2024-01-06T09:59:44;2.63;;;1.80;;
55312;SDS011;46892;45.668;11.756;2024-01-06T10:02:10;3.17;;;1.90;;
55312;SDS011;46892;45.668;11.756;2024-01-06T10:04:39;3.38;;;1.88;;
55312;SDS011;46892;45.668;11.756;2024-01-06T10:07:05;2.40;;;1.53;;
55312;SDS011;46892;45.668;11.756;2024-01-06T10:09:31;3.10;;;1.80;;
55312;SDS011;46892;45.668;11.756;2024-01-06T10:11:57;4.30;;;2.47;;
55312;SDS011;46892;45.668;11.756;2024-01-06T10:14:24;2.83;;;1.53;;
55312;SDS011;46892;45.668;11.756;2024-01-06T10:16:53;1.83;;;1.40;;
55312;SDS011;46892;45.668;11.756;2024-01-06T10:19:19;2.83;;;1.60;;
55312;SDS011;46892;45.668;11.756;2024-01-06T10:21:46;3.80;;;1.73;;
55312;SDS011;46892;45.668;11.756;2024-01-06T10:24:12;3.23;;;1.50;;
55312;SDS011;46892;45.668;11.756;2024-01-06T10:26:38;3.87;;;2.17;;
55312;SDS011;46892;45.668;11.756;2024-01-06T10:29:05;3.53;;;2.40;;
55312;SDS011;46892;45.668;11.756;2024-01-06T10:31:30;2.63;;;1.83;;
55312;SDS011;46892;45.668;11.756;2024-01-06T10:33:56;3.20;;;1.87;;
55312;SDS011;46892;45.668;11.756;2024-01-06T10:36:22;2.53;;;1.93;;
55312;SDS011;46892;45.668;11.756;2024-01-06T10:38:49;3.27;;;2.17;;
55312;SDS011;46892;45.668;11.756;2024-01-06T10:41:15;3.27;;;2.10;;
55312;SDS011;46892;45.668;11.756;2024-01-06T10:43:42;4.40;;;2.50;;
55312;SDS011;46892;45.668;11.756;2024-01-06T10:46:09;4.63;;;2.90;;
55312;SDS011;46892;45.668;11.756;2024-01-06T10:48:36;6.77;;;3.60;;
55312;SDS011;46892;45.668;11.756;2024-01-06T10:51:07;5.33;;;2.90;;
55312;SDS011;46892;45.668;11.756;2024-01-06T10:53:35;3.80;;;2.13;;
55312;SDS011;46892;45.668;11.756;2024-01-06T10:56:04;3.27;;;1.80;;
55312;SDS011;46892;45.668;11.756;2024-01-06T10:58:31;3.27;;;2.10;;
55312;SDS011;46892;45.668;11.756;2024-01-06T11:00:58;5.07;;;2.90;;
55312;SDS011;46892;45.668;11.756;2024-01-06T11:03:27;2.77;;;2.00;;
55312;SDS011;46892;45.668;11.756;2024-01-06T11:06:01;3.57;;;2.83;;
55312;SDS011;46892;45.668;11.756;2024-01-06T11:08:27;3.53;;;2.00;;
55312;SDS011;46892;45.668;11.756;2024-01-06T11:10:55;2.77;;;1.87;;
55312;SDS011;46892;45.668;11.756;2024-01-06T11:13:23;4.10;;;2.30;;
55312;SDS011;46892;45.668;11.756;2024-01-06T11:15:51;3.57;;;2.30;;
55312;SDS011;46892;45.668;11.756;2024-01-06T11:24:19;6.17;;;3.40;;
55312;SDS011;46892;45.668;11.756;2024-01-06T11:26:51;4.07;;;2.97;;
55312;SDS011;46892;45.668;11.756;2024-01-06T11:29:20;6.23;;;4.40;;
55312;SDS011;46892;45.668;11.756;2024-01-06T11:32:28;4.40;;;3.17;;
55312;SDS011;46892;45.668;11.756;2024-01-06T11:34:48;4.40;;;2.93;;
55312;SDS011;46892;45.668;11.756;2024-01-06T11:37:20;4.73;;;3.37;;
55312;SDS011;46892;45.668;11.756;2024-01-06T11:39:50;5.72;;;3.15;;
55312;SDS011;46892;45.668;11.756;2024-01-06T11:42:16;6.10;;;4.17;;
55312;SDS011;46892;45.668;11.756;2024-01-06T11:44:49;8.03;;;5.53;;
55312;SDS011;46892;45.668;11.756;2024-01-06T11:47:15;4.43;;;2.47;;
55312;SDS011;46892;45.668;11.756;2024-01-06T11:49:44;2.77;;;2.00;;
55312;SDS011;46892;45.668;11.756;2024-01-06T11:52:13;3.38;;;1.98;;
55312;SDS011;46892;45.668;11.756;2024-01-06T11:54:39;42.57;;;32.57;;
55312;SDS011;46892;45.668;11.756;2024-01-06T11:57:06;23.07;;;16.10;;
55312;SDS011;46892;45.668;11.756;2024-01-06T11:59:32;56.10;;;40.87;;
55312;SDS011;46892;45.668;11.756;2024-01-06T12:01:58;27.70;;;22.63;;
55312;SDS011;46892;45.668;11.756;2024-01-06T12:04:24;11.43;;;7.83;;
55312;SDS011;46892;45.668;11.756;2024-01-06T12:06:52;7.20;;;4.57;;
55312;SDS011;46892;45.668;11.756;2024-01-06T12:09:17;7.30;;;4.80;;
55312;SDS011;46892;45.668;11.756;2024-01-06T12:11:44;6.17;;;3.43;;
55312;SDS011;46892;45.668;11.756;2024-01-06T12:14:11;6.37;;;3.43;;
55312;SDS011;46892;45.668;11.756;2024-01-06T12:16:37;4.43;;;2.73;;
55312;SDS011;46892;45.668;11.756;2024-01-06T12:19:03;3.50;;;2.27;;
55312;SDS011;46892;45.668;11.756;2024-01-06T12:21:29;4.40;;;2.20;;
55312;SDS011;46892;45.668;11.756;2024-01-06T12:24:18;4.30;;;2.13;;
55312;SDS011;46892;45.668;11.756;2024-01-06T12:26:45;7.20;;;4.73;;
55312;SDS011;46892;45.668;11.756;2024-01-06T12:29:12;6.37;;;3.50;;
55312;SDS011;46892;45.668;11.756;2024-01-06T12:31:41;4.97;;;2.20;;
55312;SDS011;46892;45.668;11.756;2024-01-06T12:34:09;3.25;;;2.10;;
55312;SDS011;46892;45.668;11.756;2024-01-06T12:36:38;3.33;;;2.03;;
55312;SDS011;46892;45.668;11.756;2024-01-06T12:39:06;3.38;;;2.15;;
55312;SDS011;46892;45.668;11.756;2024-01-06T12:41:38;4.17;;;2.60;;
55312;SDS011;46892;45.668;11.756;2024-01-06T12:44:05;3.13;;;2.43;;
55312;SDS011;46892;45.668;11.756;2024-01-06T12:46:32;6.67;;;4.60;;
55312;SDS011;46892;45.668;11.756;2024-01-06T12:48:58;3.13;;;2.17;;
55312;SDS011;46892;45.668;11.756;2024-01-06T12:51:24;3.70;;;2.17;;
55312;SDS011;46892;45.668;11.756;2024-01-06T12:53:50;2.73;;;2.20;;
55312;SDS011;46892;45.668;11.756;2024-01-06T12:56:16;4.97;;;2.10;;
55312;SDS011;46892;45.668;11.756;2024-01-06T12:58:42;2.97;;;1.80;;
55312;SDS011;46892;45.668;11.756;2024-01-06T13:01:09;4.53;;;1.97;;
55312;SDS011;46892;45.668;11.756;2024-01-06T13:03:35;3.20;;;1.70;;
55312;SDS011;46892;45.668;11.756;2024-01-06T13:06:00;3.20;;;1.87;;
55312;SDS011;46892;45.668;11.756;2024-01-06T13:08:26;4.40;;;1.77;;
55312;SDS011;46892;45.668;11.756;2024-01-06T13:10:53;2.37;;;1.53;;
55312;SDS011;46892;45.668;11.756;2024-01-06T13:13:19;2.93;;;1.70;;
55312;SDS011;46892;45.668;11.756;2024-01-06T13:15:45;4.70;;;2.87;;
55312;SDS011;46892;45.668;11.756;2024-01-06T13:18:11;4.00;;;1.70;;
55312;SDS011;46892;45.668;11.756;2024-01-06T13:20:38;3.77;;;1.93;;
55312;SDS011;46892;45.668;11.756;2024-01-06T13:23:06;3.03;;;2.13;;
55312;SDS011;46892;45.668;11.756;2024-01-06T13:25:32;4.10;;;2.50;;
55312;SDS011;46892;45.668;11.756;2024-01-06T13:27:58;4.17;;;2.47;;
55312;SDS011;46892;45.668;11.756;2024-01-06T13:30:24;4.10;;;2.43;;
55312;SDS011;46892;45.668;11.756;2024-01-06T13:32:51;3.50;;;2.10;;
55312;SDS011;46892;45.668;11.756;2024-01-06T13:35:19;4.10;;;2.23;;
55312;SDS011;46892;45.668;11.756;2024-01-06T13:37:45;3.27;;;2.20;;
55312;SDS011;46892;45.668;11.756;2024-01-06T13:40:13;2.73;;;2.00;;
55312;SDS011;46892;45.668;11.756;2024-01-06T13:42:39;2.80;;;1.90;;
55312;SDS011;46892;45.668;11.756;2024-01-06T13:45:05;2.30;;;1.60;;
55312;SDS011;46892;45.668;11.756;2024-01-06T13:47:32;2.20;;;1.67;;
55312;SDS011;46892;45.668;11.756;2024-01-06T13:49:58;2.67;;;1.87;;
55312;SDS011;46892;45.668;11.756;2024-01-06T13:52:24;3.37;;;1.93;;
55312;SDS011;46892;45.668;11.756;2024-01-06T13:54:49;3.30;;;2.33;;
55312;SDS011;46892;45.668;11.756;2024-01-06T13:57:16;3.47;;;1.90;;
55312;SDS011;46892;45.668;11.756;2024-01-06T13:59:42;2.43;;;1.80;;
55312;SDS011;46892;45.668;11.756;2024-01-06T14:02:10;1.90;;;1.47;;
55312;SDS011;46892;45.668;11.756;2024-01-06T14:04:36;2.57;;;1.50;;
55312;SDS011;46892;45.668;11.756;2024-01-06T14:07:02;2.23;;;1.37;;
55312;SDS011;46892;45.668;11.756;2024-01-06T14:09:29;4.03;;;2.23;;
55312;SDS011;46892;45.668;11.756;2024-01-06T14:11:55;3.07;;;1.80;;
55312;SDS011;46892;45.668;11.756;2024-01-06T14:14:21;2.57;;;1.80;;
55312;SDS011;46892;45.668;11.756;2024-01-06T14:16:47;3.83;;;2.43;;
55312;SDS011;46892;45.668;11.756;2024-01-06T14:19:13;3.70;;;2.53;;
55312;SDS011;46892;45.668;11.756;2024-01-06T14:21:39;3.93;;;2.50;;
55312;SDS011;46892;45.668;11.756;2024-01-06T14:24:05;5.00;;;3.60;;
55312;SDS011;46892;45.668;11.756;2024-01-06T14:26:32;6.87;;;4.60;;
55312;SDS011;46892;45.668;11.756;2024-01-06T14:28:58;4.83;;;2.90;;
55312;SDS011;46892;45.668;11.756;2024-01-06T14:31:24;3.87;;;2.90;;
55312;SDS011;46892;45.668;11.756;2024-01-06T14:33:52;7.83;;;6.37;;
55312;SDS011;46892;45.668;11.756;2024-01-06T14:36:18;6.10;;;4.13;;
55312;SDS011;46892;45.668;11.756;2024-01-06T14:38:43;7.67;;;6.07;;
55312;SDS011;46892;45.668;11.756;2024-01-06T14:41:12;7.50;;;5.00;;
55312;SDS011;46892;45.668;11.756;2024-01-06T14:43:37;8.40;;;5.00;;